HE19 weather

As Sallum Airport
Matruh Governorate, Egypt

Public forecast

Using degrees Celsius for public forecast. Weather courtesy of forecast.io.

METAR (pilot weather report)

Closest report is Mersa Matruh Airport, 99.6 nm (184.5 km) E. Retrieved 2019/04/21 09:00 UTC (46 minutes ago):

HEMM 210900Z 35014KT 9999 SCT020 17/08 Q1023 NOSIG

TAF (pilot weather forecast)

Forecast is more than 12 hours old.

Closest forecast is Gamal Abdel Nasser Airport, 74.4 nm (137.8 km) WNW. Retrieved 2012/09/08 18:00 UTC (7 years ago):

TAF HLLQ 081700Z 0818/0918 34008G18KT 9999 SCT020= TAF HLGN 081700Z 0818/0918 36012KT 9999 SCT022